메인 페이지
METAR-TAF:

METAR-TAF

공항 :

Tinker Air Force Base

오클라호마시티 / Tinker, 오클라호마, 미국

위도: 35-25N, 경도: 097-23W, 고도: 394m

현재 날씨관측

예보는 22분 전, 00:56시(UTC)에 발표되었습니다.
북북동9kt
온도 12°C
습도 67%
기압 1025 hPa
시정: 16.1km
고도 2800ft 상공 흐림

METAR: KTIK 260056Z AUTO 03009KT 10SM OVC028 12/06 A3027 RMK AO2 CIG 027 RWY13 CIG 027 RWY18 SLP259 T01190060

시각: 20:18 (01:18 UTC)

예보

예보는 18분 전, 01:00시(UTC)에 발표되었습니다.
예보 대상 시간: 26일 01시부터 27일 07시까지 (UTC)
북북동9kt
시정 10km 이상
고도 2000ft 상공 구름 많음
전환 중
26일 14시부터 26일 15시까지 (UTC)
남동6kt
시정 10km 이상
고도 5000ft 상공 구름 조금

TAF: KTIK 260100Z 2601/2707 02009KT 9999 BKN020 QNH3025INS BECMG 2614/2615 14006KT 9999 FEW050 QNH3021INS TX18/2622Z TN08/2612Z

4,000개 이상의 공항 관측 자료 및 예보 (METAR 및 TAF 보고).

지도상에서 검색 가능한 기상관측소가 노란 점과 빨간 점으로 표시되어 있습니다.

기상관측소 명을 보려면 표시 위로 마우스를 이동하세요.

날씨 관측과 예보를 보려면 클릭하세요.

지도 변경 : 확대하려면 엑스 표시가 있는 녹색 버튼, 축소하려면 빼기 표시가 있는 녹색 버튼, 다음 페이지의 지도를 보려면 녹색 화살표를 클릭하세요.


METAR-TAF: